createdAt,value
2023-04-09T00:13:40.988Z,10.18
2023-04-09T00:28:43.003Z,10.38
2023-04-09T00:43:45.007Z,9.02
2023-04-09T00:58:47.070Z,9.50
2023-04-09T01:14:18.658Z,12.05
2023-04-09T01:29:23.242Z,11.60
2023-04-09T01:44:26.627Z,15.40
2023-04-09T01:59:28.576Z,11.20
2023-04-09T02:14:33.037Z,10.80
2023-04-09T02:29:35.101Z,11.38
2023-04-09T02:44:37.219Z,10.70
2023-04-09T02:59:40.900Z,10.65
2023-04-09T03:14:42.842Z,8.90
2023-04-09T03:29:44.852Z,10.30
2023-04-09T03:44:46.941Z,10.95
2023-04-09T03:59:48.988Z,10.23
2023-04-09T04:14:50.926Z,10.63
2023-04-09T04:29:52.994Z,8.95
2023-04-09T04:44:54.962Z,9.93
2023-04-09T04:59:56.931Z,10.93
2023-04-09T05:14:58.900Z,12.13
2023-04-09T05:30:01.149Z,15.68
2023-04-09T05:45:03.727Z,14.80
2023-04-09T06:00:06.430Z,16.02
2023-04-09T06:15:09.481Z,17.48
2023-04-09T06:30:11.943Z,17.15
2023-04-09T06:45:13.941Z,13.77
2023-04-09T07:00:16.735Z,13.40
2023-04-09T07:15:18.816Z,13.77
2023-04-09T07:30:21.237Z,14.38
2023-04-09T07:45:23.257Z,12.55
2023-04-09T08:00:25.370Z,11.98
2023-04-09T08:15:27.347Z,10.52
2023-04-09T08:30:29.349Z,11.35
2023-04-09T08:45:31.611Z,12.52
2023-04-09T09:00:33.669Z,12.27
2023-04-09T09:15:35.954Z,11.95
2023-04-09T09:30:40.499Z,10.95
2023-04-09T09:45:44.154Z,12.25
2023-04-09T10:00:49.039Z,9.85
2023-04-09T10:15:52.644Z,10.43
2023-04-09T10:30:55.745Z,9.23
2023-04-09T10:45:58.228Z,9.93
2023-04-09T11:01:02.081Z,8.68
2023-04-09T11:16:07.357Z,9.38
2023-04-09T11:31:09.840Z,8.93
2023-04-09T11:46:12.227Z,9.00
2023-04-09T12:01:14.950Z,7.35
2023-04-09T12:16:21.524Z,6.43
2023-04-09T12:31:23.609Z,7.32
2023-04-09T12:46:26.147Z,6.10
2023-04-09T13:01:28.219Z,6.35
2023-04-09T13:16:30.247Z,7.72
2023-04-09T13:31:33.522Z,9.85
2023-04-09T13:46:35.614Z,6.57
2023-04-09T14:01:37.813Z,4.25
2023-04-09T14:16:39.918Z,6.70
2023-04-09T14:31:43.158Z,7.38
2023-04-09T14:46:45.401Z,9.15
2023-04-09T15:01:47.664Z,7.68
2023-04-09T15:16:50.121Z,9.07
2023-04-09T15:31:53.490Z,8.07
2023-04-09T15:46:56.240Z,9.55
2023-04-09T16:01:58.286Z,7.68
2023-04-09T16:17:00.695Z,7.10
2023-04-09T16:32:04.043Z,6.57
2023-04-09T16:47:06.559Z,6.43
2023-04-09T17:02:09.161Z,6.47
2023-04-09T17:17:12.097Z,5.93
2023-04-09T17:32:14.136Z,4.90
2023-04-09T17:47:16.255Z,6.30
2023-04-09T18:02:18.414Z,6.72
2023-04-09T18:17:20.758Z,6.47
2023-04-09T18:32:23.828Z,7.05
2023-04-09T18:47:26.302Z,10.73
2023-04-09T19:02:30.264Z,12.93
2023-04-09T19:17:32.459Z,17.92
2023-04-09T19:32:35.024Z,16.08
2023-04-09T19:47:37.443Z,13.52
2023-04-09T20:02:41.918Z,10.20
2023-04-09T20:17:44.039Z,14.07
2023-04-09T20:32:46.158Z,13.48
2023-04-09T20:47:48.345Z,11.30
2023-04-09T21:02:51.753Z,18.90
2023-04-09T21:17:53.941Z,13.10
2023-04-09T21:32:56.120Z,12.18
2023-04-09T21:47:58.098Z,12.75
2023-04-09T22:03:02.053Z,12.55
2023-04-09T22:18:04.366Z,13.30
2023-04-09T22:33:06.569Z,12.43
2023-04-09T22:48:09.081Z,13.43
2023-04-09T23:03:11.271Z,17.42
2023-04-09T23:18:13.292Z,16.35
2023-04-09T23:33:15.265Z,17.50
2023-04-09T23:48:17.464Z,17.00
